Time;durP1;ratioP1;P1;durP2;ratioP2;P2;SDS_P1;SDS_P2;PMS_P1;PMS_P2;Temp;Humidity;BMP_temperature;BMP_pressure;BME280_temperature;BME280_humidity;BME280_pressure;Samples;Min_cycle;Max_cycle;Signal;HPM_P1;HPM_P2
2021/05/19 00:00:28;;;;;;;;;;;;;;;10.81;66.19;96519.02;1709609;82;20157;-78
2021/05/19 00:02:58;;;;;;;;;;;;;;;10.77;68.36;96514.52;1713271;82;20164;-78
2021/05/19 00:05:24;;;;;;;;;;;;;;;10.73;65.89;96520.20;1716738;83;20156;-78
2021/05/19 00:07:50;;;;;;;;;;;;;;;10.69;66.58;96520.15;1717104;84;20537;-78
2021/05/19 00:10:16;;;;;;;;;;;;;;;10.67;66.89;96522.08;1718808;82;20532;-76
2021/05/19 00:12:43;;;;;;;;;;;;;;;10.63;66.21;96523.67;1750922;81;20151;-77
2021/05/19 00:15:09;;;;;;;;;;;;;;;10.61;66.48;96524.78;1730721;83;20228;-78
2021/05/19 00:17:44;;;;;;;;;;;;;;;10.60;67.85;96527.92;1733642;82;20516;-78
2021/05/19 00:20:12;;;;;;;;;;;;;;;10.59;67.04;96531.98;1732499;83;20252;-78
2021/05/19 00:22:38;;;;;;;;;;;;;;;10.60;67.54;96530.55;1733910;83;20533;-78
2021/05/19 00:25:07;;;;;;;;;;;;;;;10.64;66.70;96525.83;1733495;81;20163;-78
2021/05/19 00:27:33;;;;;;;;;;;;;;;10.62;66.45;96527.27;1732842;81;20259;-78
2021/05/19 00:30:00;;;;;;;;;;;;;;;10.63;66.57;96525.48;1732991;81;20195;-77
2021/05/19 00:32:26;;;;;;;;;;;;;;;10.61;66.09;96526.09;1733682;81;20140;-78
2021/05/19 00:34:53;;;;;;;;;;;;;;;10.58;67.38;96527.21;1734066;83;20171;-78
2021/05/19 00:37:19;;;;;;;;;;;;;;;10.58;67.50;96527.21;1733970;83;20584;-78
2021/05/19 00:39:46;;;;;;;;;;;;;;;10.57;66.94;96530.81;1733597;83;20155;-78
2021/05/19 00:42:13;;;;;;;;;;;;;;;10.56;68.01;96528.33;1733274;83;20512;-78
2021/05/19 00:44:40;;;;;;;;;;;;;;;10.57;67.47;96537.41;1733239;82;20151;-78
2021/05/19 00:47:06;;;;;;;;;;;;;;;10.56;68.08;96529.64;1733712;81;20510;-78
2021/05/19 00:49:34;;;;;;;;;;;;;;;10.57;68.04;96530.00;1739248;81;20149;-77
2021/05/19 00:52:01;;;;;;;;;;;;;;;10.53;68.19;96524.64;1764208;80;20168;-77
2021/05/19 00:54:27;;;;;;;;;;;;;;;10.52;68.69;96524.28;1744057;81;20191;-78
2021/05/19 00:56:53;;;;;;;;;;;;;;;10.51;68.42;96522.16;1733219;81;20160;-77
2021/05/19 00:59:20;;;;;;;;;;;;;;;10.49;69.13;96526.72;1761183;81;20164;-78
2021/05/19 01:01:47;;;;;;;;;;;;;;;10.49;68.82;96532.48;1735151;81;20160;-78
2021/05/19 01:04:16;;;;;;;;;;;;;;;10.48;68.87;96526.37;1731256;82;20151;-77
2021/05/19 01:06:51;;;;;;;;;;;;;;;10.48;69.20;96531.63;1730156;83;20267;-78
2021/05/19 01:11:59;;;;;;;;;;;;;;;10.48;68.92;96532.13;1755358;80;20185;-78
2021/05/19 01:14:27;;;;;;;;;;;;;;;10.46;69.07;96532.25;1731591;82;20176;-78
2021/05/19 01:16:53;;;;;;;;;;;;;;;10.43;69.08;96532.05;1711332;82;20181;-78
2021/05/19 01:19:21;;;;;;;;;;;;;;;10.43;69.08;96529.91;1715346;83;20160;-77
2021/05/19 01:21:48;;;;;;;;;;;;;;;10.40;68.55;96526.22;1716048;83;20172;-77
2021/05/19 01:24:14;;;;;;;;;;;;;;;10.38;68.98;96528.15;1717212;83;20192;-77
2021/05/19 01:26:40;;;;;;;;;;;;;;;10.37;68.96;96536.55;1714714;83;20160;-78
2021/05/19 01:29:07;;;;;;;;;;;;;;;10.36;68.60;96536.63;1716995;84;20173;-77
2021/05/19 01:31:33;;;;;;;;;;;;;;;10.34;68.82;96545.18;1714609;84;20156;-78
2021/05/19 01:34:00;;;;;;;;;;;;;;;10.34;68.57;96543.86;1713478;84;20165;-77
2021/05/19 01:36:26;;;;;;;;;;;;;;;10.35;69.29;96545.53;1716478;84;20152;-78
2021/05/19 01:38:53;;;;;;;;;;;;;;;10.37;69.02;96539.63;1722759;82;20184;-78
2021/05/19 01:41:19;;;;;;;;;;;;;;;10.39;68.78;96535.94;1715203;83;20169;-77
2021/05/19 01:43:46;;;;;;;;;;;;;;;10.43;69.04;96537.81;1715092;84;20181;-78
2021/05/19 01:46:20;;;;;;;;;;;;;;;10.45;69.10;96539.80;1716840;82;20172;-78
2021/05/19 01:48:51;;;;;;;;;;;;;;;10.48;68.49;96535.59;1716280;83;20168;-78
2021/05/19 01:51:19;;;;;;;;;;;;;;;10.49;68.67;96534.63;1712953;83;20248;-77
2021/05/19 01:53:46;;;;;;;;;;;;;;;10.50;69.15;96538.93;1720628;82;20220;-78
2021/05/19 01:56:12;;;;;;;;;;;;;;;10.52;69.02;96540.95;1726099;82;20233;-78
2021/05/19 01:58:39;;;;;;;;;;;;;;;10.53;69.66;96541.77;1709894;82;20168;-79
2021/05/19 02:01:07;;;;;;;;;;;;;;;10.53;70.65;96539.98;1714586;83;20176;-77
2021/05/19 02:03:34;;;;;;;;;;;;;;;10.52;70.96;96539.63;1742920;81;20169;-78
2021/05/19 02:06:15;;;;;;;;;;;;;;;10.51;69.82;96542.38;1707655;83;20137;-78
2021/05/19 02:08:42;;;;;;;;;;;;;;;10.50;69.11;96541.56;1711983;83;20447;-78
2021/05/19 02:11:12;;;;;;;;;;;;;;;10.51;69.35;96545.02;1713127;82;20509;-76
2021/05/19 02:13:39;;;;;;;;;;;;;;;10.51;69.42;96549.81;1709395;83;20191;-77
2021/05/19 02:16:07;;;;;;;;;;;;;;;10.52;68.78;96549.32;1713439;82;20148;-77
2021/05/19 02:18:34;;;;;;;;;;;;;;;10.51;69.86;96543.23;1714604;83;20156;-78
2021/05/19 02:21:03;;;;;;;;;;;;;;;10.52;68.92;96538.31;1713171;83;20505;-78
2021/05/19 02:23:30;;;;;;;;;;;;;;;10.52;69.12;96526.45;1743126;81;20183;-79
2021/05/19 02:25:56;;;;;;;;;;;;;;;10.52;69.23;96528.23;1715926;84;20160;-78
2021/05/19 02:28:22;;;;;;;;;;;;;;;10.49;68.81;96531.98;1712759;84;20165;-78
2021/05/19 02:30:50;;;;;;;;;;;;;;;10.46;69.39;96534.88;1712162;84;20157;-78
2021/05/19 02:33:20;;;;;;;;;;;;;;;10.40;69.74;96532.30;1714892;84;20152;-78
2021/05/19 02:35:46;;;;;;;;;;;;;;;10.36;69.07;96531.36;1714851;84;20152;-79
2021/05/19 02:38:13;;;;;;;;;;;;;;;10.30;69.51;96527.00;1714664;83;20154;-77
2021/05/19 02:40:39;;;;;;;;;;;;;;;10.25;69.68;96521.32;1709715;83;20181;-78
2021/05/19 02:43:05;;;;;;;;;;;;;;;10.20;69.62;96524.01;1708777;83;20171;-78
2021/05/19 02:45:34;;;;;;;;;;;;;;;10.12;69.97;96522.86;1713514;81;20153;-78
2021/05/19 02:48:00;;;;;;;;;;;;;;;10.06;70.13;96523.41;1714006;83;20516;-77
2021/05/19 02:50:26;;;;;;;;;;;;;;;9.99;70.01;96530.17;1711106;83;20501;-78
2021/05/19 02:52:52;;;;;;;;;;;;;;;9.91;70.62;96521.62;1715757;83;20176;-78
2021/05/19 02:55:18;;;;;;;;;;;;;;;9.86;70.46;96538.31;1736660;82;20505;-78
2021/05/19 02:57:44;;;;;;;;;;;;;;;9.81;70.58;96531.27;1733037;82;20521;-78
2021/05/19 03:00:11;;;;;;;;;;;;;;;9.75;70.70;96537.08;1743094;82;20598;-79
2021/05/19 03:02:37;;;;;;;;;;;;;;;9.69;70.57;96541.91;1712107;83;20480;-77
2021/05/19 03:05:06;;;;;;;;;;;;;;;9.64;70.48;96538.83;1712502;83;20501;-78
2021/05/19 03:07:32;;;;;;;;;;;;;;;9.58;70.97;96540.67;1718835;83;20188;-78
2021/05/19 03:09:58;;;;;;;;;;;;;;;9.56;70.92;96548.36;1711401;83;20197;-78
2021/05/19 03:12:24;;;;;;;;;;;;;;;9.52;71.21;96545.12;1733185;81;20195;-78
2021/05/19 03:14:50;;;;;;;;;;;;;;;9.49;71.21;96546.22;1731880;81;20140;-76
2021/05/19 03:17:17;;;;;;;;;;;;;;;9.49;71.14;96551.98;1729020;81;20168;-79
2021/05/19 03:19:43;;;;;;;;;;;;;;;9.48;71.65;96560.34;1730728;83;20149;-76
2021/05/19 03:22:09;;;;;;;;;;;;;;;9.50;71.60;96554.47;1730306;83;20147;-78
2021/05/19 03:24:36;;;;;;;;;;;;;;;9.53;71.67;96558.63;1733838;82;20148;-78
2021/05/19 03:27:03;;;;;;;;;;;;;;;9.58;71.50;96564.82;1758615;80;20179;-79
2021/05/19 03:29:29;;;;;;;;;;;;;;;9.60;71.00;96565.06;1754264;80;20140;-78
2021/05/19 03:31:55;;;;;;;;;;;;;;;9.63;70.47;96568.73;1740130;81;20145;-79
2021/05/19 03:34:21;;;;;;;;;;;;;;;9.65;72.41;96563.36;1744772;81;20144;-77
2021/05/19 03:36:47;;;;;;;;;;;;;;;9.67;70.65;96560.94;1730759;82;20472;-78
2021/05/19 03:39:14;;;;;;;;;;;;;;;9.71;71.02;96554.08;1728901;83;20164;-78
2021/05/19 03:41:42;;;;;;;;;;;;;;;9.74;70.41;96556.46;1729903;83;20136;-78
2021/05/19 03:44:09;;;;;;;;;;;;;;;9.76;69.91;96553.22;1734826;82;20509;-77
2021/05/19 03:46:36;;;;;;;;;;;;;;;9.80;70.47;96550.66;1724492;81;20183;-78
2021/05/19 03:49:03;;;;;;;;;;;;;;;9.85;70.24;96550.63;1729577;82;20136;-76
2021/05/19 03:51:29;;;;;;;;;;;;;;;9.92;69.92;96552.74;1731283;83;20151;-78
2021/05/19 03:53:55;;;;;;;;;;;;;;;10.02;70.03;96555.40;1738706;80;20171;-77
2021/05/19 03:56:22;;;;;;;;;;;;;;;10.35;69.85;96557.39;1745502;81;20151;-78
2021/05/19 03:58:48;;;;;;;;;;;;;;;10.84;69.81;96555.66;1732032;83;20191;-77
2021/05/19 04:01:14;;;;;;;;;;;;;;;11.49;69.89;96551.59;1732557;83;20164;-77
2021/05/19 04:03:42;;;;;;;;;;;;;;;12.12;69.11;96557.58;1730589;80;20226;-77
2021/05/19 04:06:08;;;;;;;;;;;;;;;12.78;68.28;96556.17;1744169;81;20184;-78
2021/05/19 04:08:37;;;;;;;;;;;;;;;13.55;66.94;96555.67;1743841;81;20148;-78
2021/05/19 04:11:04;;;;;;;;;;;;;;;14.26;64.68;96555.05;1728205;82;20155;-77
2021/05/19 04:13:31;;;;;;;;;;;;;;;14.87;64.31;96554.92;1715540;84;20227;-78
2021/05/19 04:15:57;;;;;;;;;;;;;;;15.49;62.90;96558.10;1714506;82;20175;-78
2021/05/19 04:18:23;;;;;;;;;;;;;;;16.17;58.78;96560.80;1714352;83;20156;-77
2021/05/19 04:20:50;;;;;;;;;;;;;;;16.76;59.38;96558.70;1714256;83;20164;-77
2021/05/19 04:23:16;;;;;;;;;;;;;;;17.30;56.56;96557.34;1714009;83;20160;-78
2021/05/19 04:25:42;;;;;;;;;;;;;;;17.86;53.88;96554.84;1714103;83;20137;-78
2021/05/19 04:28:09;;;;;;;;;;;;;;;18.45;52.04;96556.36;1714236;83;20152;-78
2021/05/19 04:30:36;;;;;;;;;;;;;;;18.98;51.29;96556.98;1714409;84;20184;-78
2021/05/19 04:33:03;;;;;;;;;;;;;;;19.60;49.60;96559.19;1713958;83;20188;-77
2021/05/19 04:35:30;;;;;;;;;;;;;;;20.21;46.99;96559.94;1714586;82;20188;-77
2021/05/19 04:37:56;;;;;;;;;;;;;;;20.72;47.37;96561.92;1714362;83;20473;-78
2021/05/19 04:40:22;;;;;;;;;;;;;;;21.11;45.86;96565.78;1714725;82;20567;-77
2021/05/19 04:42:49;;;;;;;;;;;;;;;21.56;42.23;96569.73;1714418;84;20192;-78
2021/05/19 04:45:17;;;;;;;;;;;;;;;22.08;42.37;96568.06;1739313;82;20197;-78
2021/05/19 04:47:43;;;;;;;;;;;;;;;22.47;40.24;96569.53;1751763;82;20227;-76
2021/05/19 04:50:11;;;;;;;;;;;;;;;22.88;40.72;96568.84;1751527;82;20180;-77
2021/05/19 04:52:37;;;;;;;;;;;;;;;23.15;37.78;96571.41;1751918;82;20217;-78
2021/05/19 04:55:06;;;;;;;;;;;;;;;23.54;37.38;96571.67;1751524;82;20173;-77
2021/05/19 04:57:34;;;;;;;;;;;;;;;23.97;37.97;96579.52;1751620;82;20505;-78
2021/05/19 05:00:00;;;;;;;;;;;;;;;24.30;37.76;96575.66;1751330;82;20172;-78
2021/05/19 05:02:26;;;;;;;;;;;;;;;24.55;40.14;96570.70;1751973;82;20517;-79
2021/05/19 05:04:53;;;;;;;;;;;;;;;24.86;35.45;96578.34;1751880;82;20492;-78
2021/05/19 05:07:19;;;;;;;;;;;;;;;25.19;34.65;96577.09;1748849;82;20521;-75
2021/05/19 05:09:47;;;;;;;;;;;;;;;25.51;34.92;96578.19;1751361;82;20569;-78
2021/05/19 05:12:14;;;;;;;;;;;;;;;25.81;34.75;96581.34;1750848;81;20576;-76
2021/05/19 05:14:41;;;;;;;;;;;;;;;26.01;31.16;96578.30;1751891;82;20153;-77
2021/05/19 05:17:08;;;;;;;;;;;;;;;26.32;31.72;96586.29;1751953;82;20184;-77
2021/05/19 05:19:34;;;;;;;;;;;;;;;26.48;30.96;96585.58;1751962;82;20192;-77
2021/05/19 05:22:00;;;;;;;;;;;;;;;26.77;30.95;96582.94;1751840;82;20201;-77
2021/05/19 05:24:26;;;;;;;;;;;;;;;27.09;29.35;96591.95;1751486;82;20161;-78
2021/05/19 05:26:53;;;;;;;;;;;;;;;27.42;31.10;96595.78;1751543;82;20251;-77
2021/05/19 05:29:19;;;;;;;;;;;;;;;27.76;29.95;96596.38;1751787;82;20515;-79
2021/05/19 05:31:45;;;;;;;;;;;;;;;28.00;31.07;96597.03;1751875;82;20521;-78
2021/05/19 05:34:11;;;;;;;;;;;;;;;28.05;28.16;96596.28;1751977;82;20547;-78
2021/05/19 05:36:37;;;;;;;;;;;;;;;28.39;27.32;96595.45;1724145;82;20173;-77
2021/05/19 05:39:04;;;;;;;;;;;;;;;28.64;26.34;96606.63;1706385;84;20153;-78
2021/05/19 05:41:30;;;;;;;;;;;;;;;28.78;27.02;96607.65;1706259;83;20502;-77
2021/05/19 05:43:56;;;;;;;;;;;;;;;28.88;27.12;96617.27;1705986;82;20481;-77
2021/05/19 05:46:22;;;;;;;;;;;;;;;28.97;27.24;96614.39;1706488;83;20168;-77
2021/05/19 05:48:49;;;;;;;;;;;;;;;29.17;25.59;96610.28;1706392;83;20141;-79
2021/05/19 05:51:15;;;;;;;;;;;;;;;29.34;26.30;96598.53;1671867;86;20222;-77
2021/05/19 05:53:42;;;;;;;;;;;;;;;29.59;29.91;96608.27;1706295;82;20227;-79
2021/05/19 05:56:08;;;;;;;;;;;;;;;29.72;27.39;96607.02;1706424;84;20165;-78
2021/05/19 05:58:34;;;;;;;;;;;;;;;29.76;24.51;96608.16;1671934;86;20192;-77
2021/05/19 06:01:00;;;;;;;;;;;;;;;29.94;31.75;96609.39;1706226;83;20165;-78
2021/05/19 06:03:26;;;;;;;;;;;;;;;30.09;31.32;96605.45;1744849;82;20177;-77
2021/05/19 06:05:52;;;;;;;;;;;;;;;30.09;26.55;96602.73;1751771;82;20513;-78
2021/05/19 06:08:18;;;;;;;;;;;;;;;28.68;25.55;96601.00;1751773;82;20509;-78
2021/05/19 06:10:44;;;;;;;;;;;;;;;27.68;28.66;96604.91;1737823;82;20517;-79
2021/05/19 06:13:10;;;;;;;;;;;;;;;26.81;28.93;96599.52;1721106;82;20235;-78
2021/05/19 06:15:37;;;;;;;;;;;;;;;26.57;30.10;96603.58;1691885;85;20174;-76
2021/05/19 06:18:03;;;;;;;;;;;;;;;25.92;29.32;96604.00;1691817;85;20162;-77
2021/05/19 06:20:29;;;;;;;;;;;;;;;25.08;31.05;96604.83;1691705;84;20781;-77
2021/05/19 06:22:55;;;;;;;;;;;;;;;24.90;31.03;96601.12;1691941;85;20175;-79
2021/05/19 06:25:23;;;;;;;;;;;;;;;24.73;33.10;96598.74;1666972;84;20549;-78
2021/05/19 06:27:49;;;;;;;;;;;;;;;24.58;33.30;96600.44;1726337;82;20190;-78
2021/05/19 06:30:15;;;;;;;;;;;;;;;24.41;32.71;96596.16;1728149;82;20152;-77
2021/05/19 06:32:41;;;;;;;;;;;;;;;24.49;32.13;96594.52;1726673;82;20175;-78
2021/05/19 06:35:08;;;;;;;;;;;;;;;24.46;34.69;96608.42;1723755;82;20243;-78
2021/05/19 06:37:35;;;;;;;;;;;;;;;24.14;32.70;96603.17;1699237;82;20174;-78
2021/05/19 06:40:01;;;;;;;;;;;;;;;24.12;33.57;96607.44;1662494;86;20197;-77
2021/05/19 06:42:27;;;;;;;;;;;;;;;24.00;34.92;96607.31;1658385;85;20173;-78
2021/05/19 06:44:53;;;;;;;;;;;;;;;23.85;35.20;96613.53;1665436;84;20134;-77
2021/05/19 06:47:19;;;;;;;;;;;;;;;23.57;34.48;96613.97;1670995;84;20195;-78
2021/05/19 06:49:46;;;;;;;;;;;;;;;22.87;34.09;96623.64;1692789;84;20166;-78
2021/05/19 06:52:12;;;;;;;;;;;;;;;22.74;34.76;96617.77;1694663;84;20166;-78
2021/05/19 06:54:38;;;;;;;;;;;;;;;22.41;35.59;96615.50;1695854;84;20166;-78
2021/05/19 06:57:05;;;;;;;;;;;;;;;22.42;35.59;96623.86;1694339;84;20534;-79
2021/05/19 06:59:31;;;;;;;;;;;;;;;22.73;36.04;96620.18;1694926;84;20597;-75
2021/05/19 07:01:57;;;;;;;;;;;;;;;23.03;35.45;96616.92;1669121;84;20525;-78
2021/05/19 07:04:23;;;;;;;;;;;;;;;23.12;35.92;96624.23;1655506;84;20156;-78
2021/05/19 07:06:49;;;;;;;;;;;;;;;22.93;33.87;96629.49;1693873;84;20187;-75
2021/05/19 07:09:15;;;;;;;;;;;;;;;22.82;35.51;96630.99;1696215;84;20174;-77
2021/05/19 07:11:41;;;;;;;;;;;;;;;23.02;34.66;96633.58;1694543;84;20146;-77
2021/05/19 07:14:14;;;;;;;;;;;;;;;23.33;34.10;96633.36;1679559;84;20200;-78
2021/05/19 07:16:38;;;;;;;;;;;;;;;23.69;34.54;96627.84;1676691;83;20167;-78
2021/05/19 07:19:04;;;;;;;;;;;;;;;23.87;34.95;96624.91;1672184;84;20155;-77
2021/05/19 07:21:30;;;;;;;;;;;;;;;24.15;34.04;96616.39;1682227;84;20157;-78
2021/05/19 07:23:57;;;;;;;;;;;;;;;23.95;32.15;96626.52;1690149;84;20509;-79
2021/05/19 07:26:24;;;;;;;;;;;;;;;23.78;33.41;96616.27;1715268;84;20480;-77
2021/05/19 07:28:52;;;;;;;;;;;;;;;23.67;33.40;96616.47;1715460;84;20148;-79
2021/05/19 07:31:18;;;;;;;;;;;;;;;23.32;32.87;96608.86;1673831;84;20464;-77
2021/05/19 07:33:44;;;;;;;;;;;;;;;23.55;33.59;96608.79;1674325;84;20484;-77
2021/05/19 07:36:10;;;;;;;;;;;;;;;23.74;32.56;96612.39;1690853;84;20152;-77
2021/05/19 07:38:36;;;;;;;;;;;;;;;23.92;33.72;96610.80;1691726;84;20179;-76
2021/05/19 07:41:03;;;;;;;;;;;;;;;23.83;32.09;96608.89;1690196;84;20172;-77
2021/05/19 07:43:29;;;;;;;;;;;;;;;24.01;31.85;96608.16;1677268;84;20155;-74
2021/05/19 07:45:55;;;;;;;;;;;;;;;23.92;31.85;96605.41;1703251;84;20168;-77
2021/05/19 07:48:21;;;;;;;;;;;;;;;23.83;32.44;96607.55;1713598;84;20200;-76
2021/05/19 07:50:47;;;;;;;;;;;;;;;23.79;32.06;96611.73;1699591;84;20228;-78
2021/05/19 07:53:13;;;;;;;;;;;;;;;23.57;32.50;96605.91;1672086;85;20127;-76
2021/05/19 07:55:47;;;;;;;;;;;;;;;23.55;33.59;96603.41;1688846;84;20175;-79
2021/05/19 07:58:17;;;;;;;;;;;;;;;23.12;33.21;96606.23;1703693;83;20154;-78
2021/05/19 08:00:50;;;;;;;;;;;;;;;22.99;34.27;96609.81;1691125;84;20172;-79
2021/05/19 08:03:06;;;;;;;;;;;;;;;22.81;34.42;96619.09;1715447;83;20144;-78
2021/05/19 08:05:33;;;;;;;;;;;;;;;22.63;34.33;96617.92;1709021;84;20184;-78
2021/05/19 08:07:59;;;;;;;;;;;;;;;22.62;34.83;96612.24;1715113;84;20180;-79
2021/05/19 08:10:25;;;;;;;;;;;;;;;22.85;34.21;96628.39;1715100;84;20140;-77
2021/05/19 08:12:52;;;;;;;;;;;;;;;23.13;33.57;96618.63;1685885;84;20191;-76
2021/05/19 08:15:19;;;;;;;;;;;;;;;23.17;33.69;96615.84;1668977;84;20171;-77
2021/05/19 08:17:45;;;;;;;;;;;;;;;23.16;34.47;96614.19;1692028;84;20147;-76
2021/05/19 08:20:12;;;;;;;;;;;;;;;23.11;34.60;96623.39;1673382;84;20163;-77
2021/05/19 08:22:38;;;;;;;;;;;;;;;23.18;33.42;96620.20;1696234;83;20471;-78
2021/05/19 08:25:05;;;;;;;;;;;;;;;23.37;34.21;96618.96;1681644;85;20488;-77
2021/05/19 08:27:31;;;;;;;;;;;;;;;23.62;33.64;96618.97;1684571;85;20166;-77
2021/05/19 08:29:57;;;;;;;;;;;;;;;23.74;32.49;96619.63;1657693;86;20173;-76
2021/05/19 08:32:23;;;;;;;;;;;;;;;23.74;32.60;96612.89;1711252;82;20193;-77
2021/05/19 08:34:50;;;;;;;;;;;;;;;23.68;32.89;96608.70;1747496;82;20165;-78
2021/05/19 08:37:16;;;;;;;;;;;;;;;23.91;33.41;96610.48;1751697;82;20165;-76
2021/05/19 08:39:42;;;;;;;;;;;;;;;23.78;33.04;96605.52;1751569;82;20561;-77
2021/05/19 08:42:09;;;;;;;;;;;;;;;23.70;33.26;96609.31;1713454;82;20145;-77
2021/05/19 08:44:35;;;;;;;;;;;;;;;23.75;34.25;96605.12;1716900;82;20168;-76
2021/05/19 08:47:01;;;;;;;;;;;;;;;23.77;31.47;96605.74;1715577;84;20189;-79
2021/05/19 08:49:27;;;;;;;;;;;;;;;24.06;33.83;96605.61;1711339;82;20153;-77
2021/05/19 08:51:54;;;;;;;;;;;;;;;23.70;31.09;96606.63;1710175;82;20182;-77
2021/05/19 08:54:22;;;;;;;;;;;;;;;23.35;31.19;96596.84;1711541;83;20169;-78
2021/05/19 08:56:53;;;;;;;;;;;;;;;23.26;32.10;96612.92;1710458;84;20255;-77
2021/05/19 08:59:19;;;;;;;;;;;;;;;23.22;32.51;96607.16;1661878;85;20186;-77
2021/05/19 09:01:49;;;;;;;;;;;;;;;23.39;32.88;96610.97;1720532;83;20152;-78
2021/05/19 09:04:20;;;;;;;;;;;;;;;23.67;32.87;96611.59;1720855;83;20167;-77
2021/05/19 09:06:55;;;;;;;;;;;;;;;23.80;30.56;96619.58;1717918;83;20168;-79
2021/05/19 09:09:34;;;;;;;;;;;;;;;23.75;29.61;96616.73;1710909;84;20156;-77
2021/05/19 09:12:04;;;;;;;;;;;;;;;23.70;32.07;96616.05;1720178;83;20232;-78
2021/05/19 09:14:33;;;;;;;;;;;;;;;23.58;31.84;96611.05;1720373;83;20266;-79
2021/05/19 09:17:23;;;;;;;;;;;;;;;23.32;31.69;96611.55;1719835;83;20576;-78
2021/05/19 09:19:53;;;;;;;;;;;;;;;23.10;31.61;96617.74;1719920;83;20152;-81
2021/05/19 09:22:25;;;;;;;;;;;;;;;22.56;31.93;96607.73;1719206;83;20529;-79
2021/05/19 09:24:53;;;;;;;;;;;;;;;21.81;33.31;96621.75;1700051;83;20170;-79
2021/05/19 09:27:20;;;;;;;;;;;;;;;21.64;33.16;96619.17;1685740;85;20190;-78
2021/05/19 09:29:52;;;;;;;;;;;;;;;21.64;34.22;96617.83;1711721;82;20540;-78
2021/05/19 09:32:20;;;;;;;;;;;;;;;21.55;32.89;96617.16;1697377;83;20139;-78
2021/05/19 09:34:53;;;;;;;;;;;;;;;21.52;31.93;96617.59;1694917;85;20162;-78
2021/05/19 09:37:22;;;;;;;;;;;;;;;21.50;33.22;96617.77;1695340;85;20166;-78
2021/05/19 09:39:57;;;;;;;;;;;;;;;21.49;33.79;96617.45;1694488;85;20162;-78
2021/05/19 09:42:26;;;;;;;;;;;;;;;21.31;33.09;96616.72;1695228;85;20218;-78
2021/05/19 09:44:56;;;;;;;;;;;;;;;21.36;33.98;96607.55;1719482;82;20191;-77
2021/05/19 09:47:40;;;;;;;;;;;;;;;21.33;32.85;96605.29;1703464;83;20159;-79
2021/05/19 09:50:08;;;;;;;;;;;;;;;21.38;33.79;96607.36;1688998;83;20159;-78
2021/05/19 09:52:35;;;;;;;;;;;;;;;21.62;32.85;96609.16;1698970;83;20547;-79
2021/05/19 09:55:04;;;;;;;;;;;;;;;21.78;33.76;96603.38;1699688;83;20484;-78
2021/05/19 09:57:43;;;;;;;;;;;;;;;21.93;34.06;96603.16;1652710;86;20161;-80
2021/05/19 10:00:11;;;;;;;;;;;;;;;21.87;32.84;96599.14;1649997;86;20156;-80
2021/05/19 10:02:39;;;;;;;;;;;;;;;21.78;32.75;96593.98;1646299;85;20219;-82
2021/05/19 10:05:20;;;;;;;;;;;;;;;21.63;32.23;96592.03;1702530;83;20558;-79
2021/05/19 10:07:35;;;;;;;;;;;;;;;21.53;32.65;96590.56;1695036;83;20482;-78
2021/05/19 10:10:01;;;;;;;;;;;;;;;21.55;32.01;96585.52;1715685;83;20156;-79
2021/05/19 10:12:27;;;;;;;;;;;;;;;21.29;32.35;96583.12;1716640;83;20174;-79
2021/05/19 10:14:55;;;;;;;;;;;;;;;21.41;33.39;96576.63;1748281;82;20170;-79
2021/05/19 10:17:21;;;;;;;;;;;;;;;21.65;33.63;96574.70;1749397;82;20182;-78
2021/05/19 10:19:59;;;;;;;;;;;;;;;21.79;32.33;96569.35;1744825;81;20570;-78
2021/05/19 10:22:26;;;;;;;;;;;;;;;21.68;31.70;96581.51;1727711;81;20249;-77
2021/05/19 10:25:00;;;;;;;;;;;;;;;21.45;32.18;96573.84;1740186;80;20555;-77
2021/05/19 10:27:23;;;;;;;;;;;;;;;21.16;31.52;96572.68;1780277;79;20496;-78
2021/05/19 10:29:51;;;;;;;;;;;;;;;21.10;32.55;96574.84;1743519;80;20162;-79
2021/05/19 10:32:29;;;;;;;;;;;;;;;20.59;33.77;96572.89;1725377;82;20133;-77
2021/05/19 10:34:53;;;;;;;;;;;;;;;20.04;36.19;96571.48;1756219;81;20158;-79
2021/05/19 10:37:45;;;;;;;;;;;;;;;19.72;37.34;96557.66;1721271;82;20146;-80
2021/05/19 10:40:20;;;;;;;;;;;;;;;19.55;37.66;96553.09;1731465;81;20163;-80
2021/05/19 10:42:58;;;;;;;;;;;;;;;19.44;37.82;96553.12;1753020;81;20182;-80
2021/05/19 10:45:25;;;;;;;;;;;;;;;19.33;37.70;96551.80;1749356;81;20210;-76
2021/05/19 10:47:51;;;;;;;;;;;;;;;19.12;38.22;96549.13;1739343;80;20166;-78
2021/05/19 10:50:32;;;;;;;;;;;;;;;18.93;38.68;96555.41;1739379;82;20139;-78
2021/05/19 10:58:52;;;;;;;;;;;;;;;18.57;39.18;96552.21;1739360;82;20170;-78
2021/05/19 11:01:40;;;;;;;;;;;;;;;18.62;39.53;96550.31;1729414;81;20168;-79
2021/05/19 11:04:17;;;;;;;;;;;;;;;18.64;39.15;96541.10;1754715;81;20257;-79
2021/05/19 11:07:03;;;;;;;;;;;;;;;18.84;39.15;96543.16;1738931;81;20242;-79
2021/05/19 11:09:32;;;;;;;;;;;;;;;19.10;38.73;96541.80;1734569;81;20221;-78
2021/05/19 11:12:27;;;;;;;;;;;;;;;19.25;37.63;96545.26;1753841;81;20229;-78
2021/05/19 11:14:55;;;;;;;;;;;;;;;19.25;37.85;96539.91;1698259;83;20146;-79
2021/05/19 11:17:29;;;;;;;;;;;;;;;19.52;37.23;96538.80;1683496;85;20796;-78
2021/05/19 11:19:54;;;;;;;;;;;;;;;19.79;36.39;96541.66;1685507;83;20194;-78
2021/05/19 11:22:21;;;;;;;;;;;;;;;19.91;36.34;96535.28;1691574;85;20144;-77
2021/05/19 11:24:52;;;;;;;;;;;;;;;20.12;36.56;96537.89;1696569;83;20177;-79
2021/05/19 11:27:21;;;;;;;;;;;;;;;20.28;36.29;96542.06;1695734;83;20174;-77
2021/05/19 11:29:48;;;;;;;;;;;;;;;20.36;36.14;96537.59;1693735;84;20166;-80
2021/05/19 11:32:18;;;;;;;;;;;;;;;20.54;35.98;96532.52;1700636;83;20178;-78
2021/05/19 11:34:44;;;;;;;;;;;;;;;20.62;35.68;96530.69;1700798;83;20212;-76
2021/05/19 11:37:11;;;;;;;;;;;;;;;20.69;36.04;96533.70;1699655;83;20169;-75
2021/05/19 11:39:39;;;;;;;;;;;;;;;20.77;34.70;96534.58;1701191;83;20169;-79
2021/05/19 11:42:17;;;;;;;;;;;;;;;20.69;34.72;96532.37;1698738;83;20269;-78
2021/05/19 11:44:57;;;;;;;;;;;;;;;20.49;35.47;96532.80;1729012;82;20184;-78
2021/05/19 11:47:34;;;;;;;;;;;;;;;20.47;35.15;96536.19;1728152;82;20212;-78
2021/05/19 11:50:19;;;;;;;;;;;;;;;20.44;35.77;96528.86;1730941;81;20515;-80
2021/05/19 11:52:56;;;;;;;;;;;;;;;20.35;35.21;96523.89;1713360;83;20231;-79
2021/05/19 11:55:38;;;;;;;;;;;;;;;20.07;35.64;96526.13;1733334;81;20550;-76
2021/05/19 11:58:08;;;;;;;;;;;;;;;19.63;36.43;96524.87;1735857;81;20575;-78
2021/05/19 12:00:37;;;;;;;;;;;;;;;19.63;36.50;96519.53;1734659;81;20210;-79
2021/05/19 12:03:04;;;;;;;;;;;;;;;19.62;37.03;96530.43;1730270;80;20186;-75
2021/05/19 12:05:54;;;;;;;;;;;;;;;19.69;36.03;96539.84;1735092;81;20564;-78
2021/05/19 12:08:23;;;;;;;;;;;;;;;19.32;36.24;96534.11;1750202;80;20184;-79
2021/05/19 12:11:13;;;;;;;;;;;;;;;18.97;37.34;96532.67;1716553;83;20144;-76
2021/05/19 12:13:42;;;;;;;;;;;;;;;19.14;37.36;96529.73;1694267;84;20523;-79
2021/05/19 12:16:10;;;;;;;;;;;;;;;19.28;37.22;96526.67;1670991;84;20510;-80
2021/05/19 12:18:37;;;;;;;;;;;;;;;19.36;37.24;96534.55;1723521;82;20140;-76
2021/05/19 12:21:09;;;;;;;;;;;;;;;19.16;37.31;96533.86;1688104;84;20253;-77
2021/05/19 12:23:37;;;;;;;;;;;;;;;19.13;37.53;96541.44;1667529;86;20473;-79
2021/05/19 12:26:03;;;;;;;;;;;;;;;19.00;37.89;96533.60;1718948;82;20469;-80
2021/05/19 12:28:29;;;;;;;;;;;;;;;18.83;38.09;96524.16;1725156;82;20157;-78
2021/05/19 12:30:59;;;;;;;;;;;;;;;19.05;38.24;96521.02;1726611;82;20210;-78
2021/05/19 12:33:38;;;;;;;;;;;;;;;19.14;37.83;96522.53;1686182;82;20175;-80
2021/05/19 12:36:04;;;;;;;;;;;;;;;19.21;38.16;96518.59;1670551;85;20228;-78
2021/05/19 12:38:34;;;;;;;;;;;;;;;19.35;38.32;96519.02;1640914;87;20507;-81
2021/05/19 12:41:02;;;;;;;;;;;;;;;19.40;38.19;96494.38;1668531;86;20180;-78
2021/05/19 12:43:29;;;;;;;;;;;;;;;19.62;38.23;96509.89;1682293;83;20151;-77
2021/05/19 12:45:59;;;;;;;;;;;;;;;19.59;37.52;96506.25;1696236;84;20174;-81
2021/05/19 12:48:25;;;;;;;;;;;;;;;19.58;37.88;96503.27;1648551;86;20198;-82
2021/05/19 12:50:59;;;;;;;;;;;;;;;19.63;38.12;96494.66;1654993;85;20499;-79
2021/05/19 12:53:38;;;;;;;;;;;;;;;19.70;37.87;96500.87;1644056;85;20172;-81
2021/05/19 12:56:15;;;;;;;;;;;;;;;19.66;37.54;96496.95;1659410;85;20180;-79
2021/05/19 12:58:58;;;;;;;;;;;;;;;19.45;37.42;96503.16;1711435;82;20206;-78
2021/05/19 13:01:27;;;;;;;;;;;;;;;19.17;37.94;96495.45;1686212;85;20158;-78